sensor_id;sensor_type;location;lat;lon;timestamp;P1;durP1;ratioP1;P2;durP2;ratioP2
9234;SDS011;4652;42.716;23.218;2023-04-23T00:00:44;9.63;;;6.20;;
9234;SDS011;4652;42.716;23.218;2023-04-23T00:07:29;7.07;;;6.47;;
9234;SDS011;4652;42.716;23.218;2023-04-23T00:14:13;7.33;;;6.20;;
9234;SDS011;4652;42.716;23.218;2023-04-23T00:20:57;7.80;;;6.40;;
9234;SDS011;4652;42.716;23.218;2023-04-23T00:27:39;8.20;;;7.13;;
9234;SDS011;4652;42.716;23.218;2023-04-23T00:34:21;8.53;;;6.87;;
9234;SDS011;4652;42.716;23.218;2023-04-23T00:41:05;7.73;;;6.87;;
9234;SDS011;4652;42.716;23.218;2023-04-23T00:47:47;8.53;;;6.80;;
9234;SDS011;4652;42.716;23.218;2023-04-23T00:54:30;7.70;;;6.73;;
9234;SDS011;4652;42.716;23.218;2023-04-23T01:08:03;7.87;;;7.07;;
9234;SDS011;4652;42.716;23.218;2023-04-23T01:14:46;8.97;;;6.80;;
9234;SDS011;4652;42.716;23.218;2023-04-23T01:21:28;8.20;;;6.97;;
9234;SDS011;4652;42.716;23.218;2023-04-23T01:28:12;8.63;;;6.50;;
9234;SDS011;4652;42.716;23.218;2023-04-23T01:34:54;11.47;;;7.10;;
9234;SDS011;4652;42.716;23.218;2023-04-23T01:41:37;7.67;;;6.57;;
9234;SDS011;4652;42.716;23.218;2023-04-23T01:48:21;8.63;;;6.63;;
9234;SDS011;4652;42.716;23.218;2023-04-23T01:55:04;10.90;;;7.20;;
9234;SDS011;4652;42.716;23.218;2023-04-23T02:01:46;9.53;;;6.97;;
9234;SDS011;4652;42.716;23.218;2023-04-23T02:08:30;8.27;;;7.47;;
9234;SDS011;4652;42.716;23.218;2023-04-23T02:15:12;10.00;;;7.23;;
9234;SDS011;4652;42.716;23.218;2023-04-23T02:21:55;9.20;;;7.23;;
9234;SDS011;4652;42.716;23.218;2023-04-23T02:28:39;8.20;;;7.17;;
9234;SDS011;4652;42.716;23.218;2023-04-23T02:35:21;9.60;;;7.33;;
9234;SDS011;4652;42.716;23.218;2023-04-23T02:42:03;9.17;;;8.03;;
9234;SDS011;4652;42.716;23.218;2023-04-23T02:48:47;9.10;;;7.50;;
9234;SDS011;4652;42.716;23.218;2023-04-23T02:55:30;8.07;;;7.27;;
9234;SDS011;4652;42.716;23.218;2023-04-23T03:02:12;7.93;;;7.13;;
9234;SDS011;4652;42.716;23.218;2023-04-23T03:08:55;11.10;;;7.30;;
9234;SDS011;4652;42.716;23.218;2023-04-23T03:15:37;7.97;;;6.93;;
9234;SDS011;4652;42.716;23.218;2023-04-23T03:22:19;9.07;;;8.10;;
9234;SDS011;4652;42.716;23.218;2023-04-23T03:29:03;9.50;;;7.93;;
9234;SDS011;4652;42.716;23.218;2023-04-23T03:35:46;11.93;;;7.63;;
9234;SDS011;4652;42.716;23.218;2023-04-23T03:42:27;9.83;;;8.83;;
9234;SDS011;4652;42.716;23.218;2023-04-23T03:49:11;13.13;;;8.97;;
9234;SDS011;4652;42.716;23.218;2023-04-23T03:55:53;9.77;;;8.37;;
9234;SDS011;4652;42.716;23.218;2023-04-23T04:02:35;11.23;;;9.03;;
9234;SDS011;4652;42.716;23.218;2023-04-23T04:09:19;11.70;;;8.90;;
9234;SDS011;4652;42.716;23.218;2023-04-23T04:16:01;11.40;;;9.40;;
9234;SDS011;4652;42.716;23.218;2023-04-23T04:22:43;13.23;;;9.20;;
9234;SDS011;4652;42.716;23.218;2023-04-23T04:29:27;11.37;;;9.93;;
9234;SDS011;4652;42.716;23.218;2023-04-23T04:36:10;10.93;;;9.73;;
9234;SDS011;4652;42.716;23.218;2023-04-23T04:42:52;12.00;;;9.03;;
9234;SDS011;4652;42.716;23.218;2023-04-23T04:49:38;10.73;;;9.27;;
9234;SDS011;4652;42.716;23.218;2023-04-23T04:56:20;12.67;;;11.37;;
9234;SDS011;4652;42.716;23.218;2023-04-23T05:03:03;15.00;;;12.43;;
9234;SDS011;4652;42.716;23.218;2023-04-23T05:09:47;13.00;;;11.70;;
9234;SDS011;4652;42.716;23.218;2023-04-23T05:16:29;15.37;;;13.70;;
9234;SDS011;4652;42.716;23.218;2023-04-23T05:23:11;12.67;;;11.10;;
9234;SDS011;4652;42.716;23.218;2023-04-23T05:29:54;11.37;;;10.17;;
9234;SDS011;4652;42.716;23.218;2023-04-23T05:36:38;11.67;;;9.47;;
9234;SDS011;4652;42.716;23.218;2023-04-23T05:43:20;13.60;;;10.20;;
9234;SDS011;4652;42.716;23.218;2023-04-23T05:50:04;10.67;;;8.10;;
9234;SDS011;4652;42.716;23.218;2023-04-23T05:56:47;10.40;;;8.80;;
9234;SDS011;4652;42.716;23.218;2023-04-23T06:03:29;9.00;;;7.70;;
9234;SDS011;4652;42.716;23.218;2023-04-23T06:10:13;9.80;;;7.83;;
9234;SDS011;4652;42.716;23.218;2023-04-23T06:16:55;11.37;;;7.63;;
9234;SDS011;4652;42.716;23.218;2023-04-23T06:23:37;10.50;;;9.05;;
9234;SDS011;4652;42.716;23.218;2023-04-23T06:30:21;8.82;;;8.10;;
9234;SDS011;4652;42.716;23.218;2023-04-23T06:37:02;9.93;;;9.00;;
9234;SDS011;4652;42.716;23.218;2023-04-23T06:43:44;9.93;;;9.02;;
9234;SDS011;4652;42.716;23.218;2023-04-23T06:50:29;9.55;;;8.52;;
9234;SDS011;4652;42.716;23.218;2023-04-23T06:57:11;8.90;;;8.10;;
9234;SDS011;4652;42.716;23.218;2023-04-23T07:08:03;8.20;;;7.50;;
9234;SDS011;4652;42.716;23.218;2023-04-23T07:14:45;10.57;;;9.00;;
9234;SDS011;4652;42.716;23.218;2023-04-23T07:21:27;10.85;;;9.85;;
9234;SDS011;4652;42.716;23.218;2023-04-23T07:28:11;10.65;;;9.60;;
9234;SDS011;4652;42.716;23.218;2023-04-23T07:34:53;10.13;;;9.23;;
9234;SDS011;4652;42.716;23.218;2023-04-23T07:41:36;11.82;;;9.55;;
9234;SDS011;4652;42.716;23.218;2023-04-23T07:48:19;10.33;;;8.80;;
9234;SDS011;4652;42.716;23.218;2023-04-23T07:55:01;10.73;;;9.40;;
9234;SDS011;4652;42.716;23.218;2023-04-23T08:01:43;13.20;;;9.33;;
9234;SDS011;4652;42.716;23.218;2023-04-23T08:08:27;11.50;;;10.33;;
9234;SDS011;4652;42.716;23.218;2023-04-23T08:15:09;9.13;;;8.23;;
9234;SDS011;4652;42.716;23.218;2023-04-23T08:21:52;12.47;;;11.27;;
9234;SDS011;4652;42.716;23.218;2023-04-23T08:28:36;9.60;;;8.63;;
9234;SDS011;4652;42.716;23.218;2023-04-23T08:35:18;8.83;;;8.00;;
9234;SDS011;4652;42.716;23.218;2023-04-23T08:49:05;9.27;;;7.90;;
9234;SDS011;4652;42.716;23.218;2023-04-23T08:55:48;8.57;;;7.20;;
9234;SDS011;4652;42.716;23.218;2023-04-23T09:02:32;8.53;;;7.63;;
9234;SDS011;4652;42.716;23.218;2023-04-23T09:09:17;9.97;;;8.03;;
9234;SDS011;4652;42.716;23.218;2023-04-23T09:16:03;7.33;;;6.73;;
9234;SDS011;4652;42.716;23.218;2023-04-23T09:22:46;10.40;;;8.97;;
9234;SDS011;4652;42.716;23.218;2023-04-23T09:29:32;9.33;;;8.40;;
9234;SDS011;4652;42.716;23.218;2023-04-23T09:36:14;8.77;;;7.37;;
9234;SDS011;4652;42.716;23.218;2023-04-23T09:42:56;7.47;;;6.87;;
9234;SDS011;4652;42.716;23.218;2023-04-23T09:49:46;9.13;;;8.23;;
9234;SDS011;4652;42.716;23.218;2023-04-23T09:56:29;8.07;;;7.37;;
9234;SDS011;4652;42.716;23.218;2023-04-23T10:03:11;10.17;;;7.63;;
9234;SDS011;4652;42.716;23.218;2023-04-23T10:09:55;27.47;;;23.33;;
9234;SDS011;4652;42.716;23.218;2023-04-23T10:16:37;8.80;;;7.90;;
9234;SDS011;4652;42.716;23.218;2023-04-23T10:23:21;11.23;;;9.43;;
9234;SDS011;4652;42.716;23.218;2023-04-23T10:30:07;9.87;;;8.87;;
9234;SDS011;4652;42.716;23.218;2023-04-23T10:36:50;8.53;;;7.63;;
9234;SDS011;4652;42.716;23.218;2023-04-23T10:43:33;8.90;;;7.00;;
9234;SDS011;4652;42.716;23.218;2023-04-23T10:50:21;8.17;;;7.10;;
9234;SDS011;4652;42.716;23.218;2023-04-23T10:57:05;10.10;;;7.50;;
9234;SDS011;4652;42.716;23.218;2023-04-23T11:03:50;9.10;;;8.10;;
9234;SDS011;4652;42.716;23.218;2023-04-23T11:10:44;12.23;;;9.23;;
9234;SDS011;4652;42.716;23.218;2023-04-23T11:24:42;9.10;;;7.20;;
9234;SDS011;4652;42.716;23.218;2023-04-23T11:31:27;6.27;;;4.80;;
9234;SDS011;4652;42.716;23.218;2023-04-23T11:38:09;7.63;;;7.03;;
9234;SDS011;4652;42.716;23.218;2023-04-23T11:44:51;7.00;;;6.07;;
9234;SDS011;4652;42.716;23.218;2023-04-23T11:51:35;6.90;;;5.30;;
9234;SDS011;4652;42.716;23.218;2023-04-23T11:58:22;6.60;;;5.93;;
9234;SDS011;4652;42.716;23.218;2023-04-23T12:05:04;6.40;;;5.30;;
9234;SDS011;4652;42.716;23.218;2023-04-23T12:11:50;5.27;;;4.77;;
9234;SDS011;4652;42.716;23.218;2023-04-23T12:18:32;5.17;;;4.37;;
9234;SDS011;4652;42.716;23.218;2023-04-23T12:25:20;6.23;;;4.83;;
9234;SDS011;4652;42.716;23.218;2023-04-23T12:32:05;5.43;;;4.77;;
9234;SDS011;4652;42.716;23.218;2023-04-23T12:38:51;4.70;;;4.27;;
9234;SDS011;4652;42.716;23.218;2023-04-23T12:45:35;5.17;;;4.17;;
9234;SDS011;4652;42.716;23.218;2023-04-23T12:52:19;4.83;;;4.40;;
9234;SDS011;4652;42.716;23.218;2023-04-23T12:59:01;5.20;;;4.23;;
9234;SDS011;4652;42.716;23.218;2023-04-23T13:25:10;6.03;;;4.30;;
9234;SDS011;4652;42.716;23.218;2023-04-23T13:31:52;5.57;;;4.50;;
9234;SDS011;4652;42.716;23.218;2023-04-23T13:38:35;7.50;;;4.63;;
9234;SDS011;4652;42.716;23.218;2023-04-23T13:45:19;6.23;;;5.20;;
9234;SDS011;4652;42.716;23.218;2023-04-23T13:52:01;6.65;;;5.10;;
9234;SDS011;4652;42.716;23.218;2023-04-23T13:58:45;4.80;;;4.30;;
9234;SDS011;4652;42.716;23.218;2023-04-23T14:05:29;4.40;;;4.00;;
9234;SDS011;4652;42.716;23.218;2023-04-23T14:12:11;6.07;;;4.60;;
9234;SDS011;4652;42.716;23.218;2023-04-23T14:18:53;5.00;;;4.00;;
9234;SDS011;4652;42.716;23.218;2023-04-23T14:25:39;5.40;;;4.20;;
9234;SDS011;4652;42.716;23.218;2023-04-23T14:32:21;4.37;;;3.97;;
9234;SDS011;4652;42.716;23.218;2023-04-23T14:39:03;4.70;;;3.90;;
9234;SDS011;4652;42.716;23.218;2023-04-23T14:45:47;4.90;;;4.23;;
9234;SDS011;4652;42.716;23.218;2023-04-23T14:52:30;4.30;;;3.90;;
9234;SDS011;4652;42.716;23.218;2023-04-23T14:59:12;4.33;;;4.00;;
9234;SDS011;4652;42.716;23.218;2023-04-23T15:05:55;5.83;;;4.03;;
9234;SDS011;4652;42.716;23.218;2023-04-23T15:12:52;4.00;;;3.70;;
9234;SDS011;4652;42.716;23.218;2023-04-23T15:19:37;6.67;;;4.10;;
9234;SDS011;4652;42.716;23.218;2023-04-23T15:26:20;5.43;;;4.93;;
9234;SDS011;4652;42.716;23.218;2023-04-23T15:33:02;5.50;;;5.00;;
9234;SDS011;4652;42.716;23.218;2023-04-23T15:39:44;6.10;;;5.50;;
9234;SDS011;4652;42.716;23.218;2023-04-23T15:46:27;6.90;;;6.30;;
9234;SDS011;4652;42.716;23.218;2023-04-23T15:53:09;7.47;;;6.77;;
9234;SDS011;4652;42.716;23.218;2023-04-23T15:59:51;6.20;;;5.60;;
9234;SDS011;4652;42.716;23.218;2023-04-23T16:06:36;6.03;;;5.40;;
9234;SDS011;4652;42.716;23.218;2023-04-23T16:13:17;5.93;;;5.30;;
9234;SDS011;4652;42.716;23.218;2023-04-23T16:19:59;6.60;;;5.70;;
9234;SDS011;4652;42.716;23.218;2023-04-23T16:26:43;8.83;;;6.97;;
9234;SDS011;4652;42.716;23.218;2023-04-23T16:33:25;9.37;;;6.40;;
9234;SDS011;4652;42.716;23.218;2023-04-23T16:40:09;7.40;;;6.70;;
9234;SDS011;4652;42.716;23.218;2023-04-23T16:46:55;6.90;;;6.20;;
9234;SDS011;4652;42.716;23.218;2023-04-23T16:53:37;8.70;;;7.03;;
9234;SDS011;4652;42.716;23.218;2023-04-23T17:00:19;7.20;;;6.50;;
9234;SDS011;4652;42.716;23.218;2023-04-23T17:07:03;9.00;;;7.00;;
9234;SDS011;4652;42.716;23.218;2023-04-23T17:13:45;10.67;;;7.63;;
9234;SDS011;4652;42.716;23.218;2023-04-23T17:20:27;9.67;;;7.90;;
9234;SDS011;4652;42.716;23.218;2023-04-23T17:27:15;13.10;;;8.53;;
9234;SDS011;4652;42.716;23.218;2023-04-23T17:33:57;10.57;;;7.93;;
9234;SDS011;4652;42.716;23.218;2023-04-23T17:40:39;8.83;;;7.83;;
9234;SDS011;4652;42.716;23.218;2023-04-23T17:47:23;12.20;;;8.50;;
9234;SDS011;4652;42.716;23.218;2023-04-23T17:54:06;9.10;;;8.07;;
9234;SDS011;4652;42.716;23.218;2023-04-23T18:00:48;12.17;;;9.03;;
9234;SDS011;4652;42.716;23.218;2023-04-23T18:07:32;10.97;;;8.27;;
9234;SDS011;4652;42.716;23.218;2023-04-23T18:14:14;11.70;;;8.33;;
9234;SDS011;4652;42.716;23.218;2023-04-23T18:20:56;11.80;;;8.43;;
9234;SDS011;4652;42.716;23.218;2023-04-23T18:27:42;9.73;;;8.70;;
9234;SDS011;4652;42.716;23.218;2023-04-23T18:34:24;10.63;;;8.97;;
9234;SDS011;4652;42.716;23.218;2023-04-23T18:41:11;9.63;;;8.67;;
9234;SDS011;4652;42.716;23.218;2023-04-23T18:47:57;12.90;;;9.33;;
9234;SDS011;4652;42.716;23.218;2023-04-23T18:54:46;10.43;;;9.43;;
9234;SDS011;4652;42.716;23.218;2023-04-23T20:25:13;14.30;;;12.80;;
9234;SDS011;4652;42.716;23.218;2023-04-23T20:31:55;15.33;;;12.67;;
9234;SDS011;4652;42.716;23.218;2023-04-23T20:38:37;14.90;;;12.67;;
9234;SDS011;4652;42.716;23.218;2023-04-23T20:45:20;16.90;;;13.33;;
9234;SDS011;4652;42.716;23.218;2023-04-23T20:52:02;19.63;;;14.47;;
9234;SDS011;4652;42.716;23.218;2023-04-23T20:58:44;17.23;;;13.73;;
9234;SDS011;4652;42.716;23.218;2023-04-23T21:05:28;16.20;;;13.13;;
9234;SDS011;4652;42.716;23.218;2023-04-23T21:12:11;15.90;;;13.27;;
9234;SDS011;4652;42.716;23.218;2023-04-23T21:18:53;16.13;;;13.20;;
9234;SDS011;4652;42.716;23.218;2023-04-23T21:25:36;17.00;;;12.70;;
9234;SDS011;4652;42.716;23.218;2023-04-23T21:32:19;17.47;;;14.43;;
9234;SDS011;4652;42.716;23.218;2023-04-23T21:39:02;17.10;;;14.10;;
9234;SDS011;4652;42.716;23.218;2023-04-23T21:45:45;17.30;;;14.77;;
9234;SDS011;4652;42.716;23.218;2023-04-23T21:52:28;17.00;;;14.23;;
9234;SDS011;4652;42.716;23.218;2023-04-23T21:59:10;17.43;;;15.07;;
9234;SDS011;4652;42.716;23.218;2023-04-23T22:05:53;19.93;;;15.43;;
9234;SDS011;4652;42.716;23.218;2023-04-23T22:12:35;19.07;;;15.87;;
9234;SDS011;4652;42.716;23.218;2023-04-23T22:19:18;15.33;;;13.73;;
9234;SDS011;4652;42.716;23.218;2023-04-23T22:26:02;15.43;;;13.57;;
9234;SDS011;4652;42.716;23.218;2023-04-23T22:32:43;16.80;;;13.33;;
9234;SDS011;4652;42.716;23.218;2023-04-23T22:39:25;16.13;;;14.20;;
9234;SDS011;4652;42.716;23.218;2023-04-23T22:46:09;16.77;;;13.50;;
9234;SDS011;4652;42.716;23.218;2023-04-23T22:52:51;17.03;;;13.17;;
9234;SDS011;4652;42.716;23.218;2023-04-23T22:59:33;13.90;;;12.23;;
9234;SDS011;4652;42.716;23.218;2023-04-23T23:06:16;14.40;;;11.77;;
9234;SDS011;4652;42.716;23.218;2023-04-23T23:12:58;13.50;;;11.40;;
9234;SDS011;4652;42.716;23.218;2023-04-23T23:19:40;13.63;;;12.20;;
9234;SDS011;4652;42.716;23.218;2023-04-23T23:26:24;13.00;;;11.60;;
9234;SDS011;4652;42.716;23.218;2023-04-23T23:33:07;13.50;;;11.63;;
9234;SDS011;4652;42.716;23.218;2023-04-23T23:39:50;13.53;;;12.07;;
9234;SDS011;4652;42.716;23.218;2023-04-23T23:46:33;17.10;;;13.60;;
9234;SDS011;4652;42.716;23.218;2023-04-23T23:53:15;16.97;;;13.80;;
9234;SDS011;4652;42.716;23.218;2023-04-23T23:59:57;14.23;;;12.20;;
